Time;durP1;ratioP1;P1;durP2;ratioP2;P2;SDS_P1;SDS_P2;PMS_P1;PMS_P2;Temp;Humidity;BMP_temperature;BMP_pressure;BME280_temperature;BME280_humidity;BME280_pressure;Samples;Min_cycle;Max_cycle;Signal;HPM_P1;HPM_P2
2023/08/12 00:02:32;;;;;;;6.72;3.42;;;;;;;17.58;100.00;101151.16;4996966;28;20429;-80
2023/08/12 00:05:06;;;;;;;7.30;3.40;;;;;;;17.63;100.00;101151.00;4980621;28;20430;-82
2023/08/12 00:07:41;;;;;;;8.35;3.47;;;;;;;17.59;100.00;101146.44;4984085;28;20445;-81
2023/08/12 00:10:13;;;;;;;6.05;3.28;;;;;;;17.60;100.00;101159.09;4981568;28;20426;-80
2023/08/12 00:12:47;;;;;;;10.45;3.35;;;;;;;17.58;100.00;101134.66;4987369;28;20426;-81
2023/08/12 00:15:16;;;;;;;7.28;3.40;;;;;;;17.59;100.00;101143.69;5009843;28;20432;-80
2023/08/12 00:17:49;;;;;;;6.78;3.28;;;;;;;17.56;100.00;101141.59;4983063;28;20418;-80
2023/08/12 00:20:22;;;;;;;6.95;3.25;;;;;;;17.60;100.00;101151.63;4991696;28;20428;-79
2023/08/12 00:22:55;;;;;;;7.50;3.20;;;;;;;17.62;100.00;101143.88;4980684;28;20451;-79
2023/08/12 00:25:29;;;;;;;6.05;3.20;;;;;;;17.63;100.00;101133.69;4981529;28;20443;-82
2023/08/12 00:28:02;;;;;;;7.93;3.22;;;;;;;17.61;100.00;101122.19;5013298;28;20434;-79
2023/08/12 00:30:32;;;;;;;6.07;3.00;;;;;;;17.54;100.00;101119.88;4983289;28;20500;-82
2023/08/12 00:33:05;;;;;;;7.53;3.35;;;;;;;17.56;100.00;101119.56;4988198;28;20434;-80
2023/08/12 00:35:38;;;;;;;6.85;3.33;;;;;;;17.50;100.00;101114.19;4988220;28;20449;-80
2023/08/12 00:38:12;;;;;;;7.75;3.30;;;;;;;17.53;100.00;101115.50;5016998;28;20419;-80
2023/08/12 00:40:45;;;;;;;5.73;3.17;;;;;;;17.51;100.00;101120.50;4985860;28;20429;-81
2023/08/12 00:43:18;;;;;;;5.53;3.30;;;;;;;17.41;100.00;101121.59;4978396;28;21000;-79
2023/08/12 00:45:48;;;;;;;6.53;3.10;;;;;;;17.44;100.00;101122.91;5016164;28;20426;-80
2023/08/12 00:48:18;;;;;;;7.18;3.40;;;;;;;17.50;100.00;101108.69;5012674;28;21189;-79
2023/08/12 00:50:52;;;;;;;5.20;3.25;;;;;;;17.54;100.00;101108.88;4989043;28;20432;-81
2023/08/12 00:53:21;;;;;;;6.45;3.28;;;;;;;17.45;100.00;101113.53;4990022;28;20441;-80
2023/08/12 00:55:54;;;;;;;7.50;2.93;;;;;;;17.47;100.00;101108.53;4984595;28;20443;-81
2023/08/12 00:58:23;;;;;;;6.57;2.90;;;;;;;17.46;100.00;101113.22;4988713;28;20414;-80
2023/08/12 01:00:57;;;;;;;6.18;3.20;;;;;;;17.43;100.00;101108.34;4982961;28;20433;-80
2023/08/12 01:03:31;;;;;;;5.85;3.35;;;;;;;17.34;100.00;101108.31;4980399;28;20447;-80
2023/08/12 01:06:00;;;;;;;5.43;3.00;;;;;;;17.46;100.00;101101.41;4982081;28;20428;-78
2023/08/12 01:08:31;;;;;;;4.93;3.30;;;;;;;17.38;100.00;101102.97;4980568;28;20416;-80
2023/08/12 01:11:07;;;;;;;7.10;3.40;;;;;;;17.28;100.00;101109.56;5022379;28;20471;-80
2023/08/12 01:13:50;;;;;;;7.10;3.27;;;;;;;17.29;100.00;101102.09;5006593;28;20438;-80
2023/08/12 01:16:22;;;;;;;4.93;2.90;;;;;;;17.35;100.00;101098.09;5019566;28;20448;-80
2023/08/12 01:18:55;;;;;;;6.28;3.10;;;;;;;17.29;100.00;101108.44;4993940;28;20758;-81
2023/08/12 01:21:32;;;;;;;6.35;3.17;;;;;;;17.35;100.00;101087.09;4993047;28;20414;-81
2023/08/12 01:24:07;;;;;;;8.30;3.43;;;;;;;17.23;100.00;101101.41;4988562;28;20451;-80
2023/08/12 01:26:40;;;;;;;5.50;2.95;;;;;;;17.30;100.00;101092.72;4984467;28;20439;-79
2023/08/12 01:29:09;;;;;;;6.43;3.20;;;;;;;17.19;100.00;101091.38;4991333;28;20439;-82
2023/08/12 01:31:52;;;;;;;5.78;3.35;;;;;;;17.18;100.00;101082.31;4992313;28;20465;-81
2023/08/12 01:34:34;;;;;;;6.65;3.35;;;;;;;17.23;100.00;101090.41;4984427;28;20447;-79
2023/08/12 01:37:05;;;;;;;6.30;3.05;;;;;;;17.17;100.00;101088.94;4987696;28;20409;-80
2023/08/12 01:39:37;;;;;;;7.35;3.15;;;;;;;17.12;100.00;101087.16;4990525;28;20883;-81
2023/08/12 01:42:06;;;;;;;6.60;3.00;;;;;;;17.11;100.00;101080.03;4980397;28;20445;-81
2023/08/12 01:44:35;;;;;;;7.43;3.13;;;;;;;17.13;100.00;101079.69;4985310;28;20447;-80
2023/08/12 01:47:03;;;;;;;6.40;3.25;;;;;;;17.12;100.00;101073.41;4980615;28;20416;-80
2023/08/12 01:49:31;;;;;;;5.82;3.10;;;;;;;17.15;100.00;101071.94;5012310;28;20814;-79
2023/08/12 01:52:05;;;;;;;5.33;3.37;;;;;;;17.17;100.00;101070.50;4982238;28;20421;-80
2023/08/12 01:54:34;;;;;;;5.75;3.15;;;;;;;17.10;100.00;101069.34;4980749;28;20442;-79
2023/08/12 01:57:08;;;;;;;6.78;3.15;;;;;;;17.07;100.00;101076.28;4979166;28;20440;-80
2023/08/12 01:59:43;;;;;;;8.02;3.35;;;;;;;17.03;100.00;101058.78;4994525;28;20431;-81
2023/08/12 02:02:18;;;;;;;8.57;3.28;;;;;;;17.00;100.00;101062.97;4986771;28;20406;-80
2023/08/12 02:04:51;;;;;;;6.95;3.35;;;;;;;17.01;100.00;101063.75;4983360;28;20430;-80
2023/08/12 02:07:26;;;;;;;8.68;3.28;;;;;;;16.98;100.00;101065.19;5021992;28;20426;-80
2023/08/12 02:10:00;;;;;;;7.95;3.22;;;;;;;16.97;100.00;101060.84;4985036;28;20420;-82
2023/08/12 02:12:28;;;;;;;5.65;3.03;;;;;;;16.95;100.00;101060.34;4993678;28;20411;-80
2023/08/12 02:15:02;;;;;;;6.20;3.03;;;;;;;16.94;100.00;101060.66;4985948;28;20426;-81
2023/08/12 02:17:35;;;;;;;4.70;3.00;;;;;;;16.93;100.00;101057.09;4982623;28;20419;-82
2023/08/12 02:20:04;;;;;;;8.82;3.22;;;;;;;16.96;100.00;101053.72;4983815;28;20437;-81
2023/08/12 02:22:37;;;;;;;6.32;3.00;;;;;;;16.93;100.00;101053.53;4985371;28;20639;-80
2023/08/12 02:25:07;;;;;;;6.78;3.20;;;;;;;16.84;100.00;101048.75;4995170;28;20451;-82
2023/08/12 02:27:41;;;;;;;7.60;3.45;;;;;;;16.82;100.00;101037.28;5015647;28;20748;-82
2023/08/12 02:30:14;;;;;;;7.40;3.30;;;;;;;16.75;100.00;101034.16;4990276;28;20431;-79
2023/08/12 02:32:43;;;;;;;5.60;3.40;;;;;;;16.70;100.00;101026.03;5027811;28;20432;-80
2023/08/12 02:35:11;;;;;;;5.35;3.30;;;;;;;16.73;100.00;101016.34;5009781;28;21232;-80
2023/08/12 02:37:44;;;;;;;5.67;3.30;;;;;;;16.70;100.00;101030.72;4981305;28;20420;-79
2023/08/12 02:40:19;;;;;;;5.43;2.92;;;;;;;16.72;100.00;101022.97;4985686;28;20479;-81
2023/08/12 02:42:52;;;;;;;6.03;3.08;;;;;;;16.63;100.00;101020.97;4985259;28;20434;-81
2023/08/12 02:45:25;;;;;;;6.72;3.33;;;;;;;16.63;100.00;101018.22;4992396;28;20516;-81
2023/08/12 02:47:58;;;;;;;7.10;3.60;;;;;;;16.64;100.00;101021.78;4984492;28;20437;-80
2023/08/12 02:50:32;;;;;;;6.03;3.20;;;;;;;16.57;100.00;101010.41;4988509;28;20934;-81
2023/08/12 02:53:05;;;;;;;6.22;3.50;;;;;;;16.57;100.00;101018.66;4991554;28;20444;-81
2023/08/12 02:55:36;;;;;;;8.15;3.30;;;;;;;16.57;100.00;101015.91;4986428;28;20432;-80
2023/08/12 02:58:09;;;;;;;7.00;3.27;;;;;;;16.55;100.00;101012.69;5000253;28;20419;-81
2023/08/12 03:00:43;;;;;;;7.18;3.40;;;;;;;16.53;100.00;101014.91;4992083;28;20434;-80
2023/08/12 03:03:11;;;;;;;6.60;3.20;;;;;;;16.51;100.00;101011.69;4993298;28;20423;-81
2023/08/12 03:05:40;;;;;;;6.97;3.60;;;;;;;16.49;100.00;101010.03;5015619;28;20891;-79
2023/08/12 03:08:08;;;;;;;8.73;3.33;;;;;;;16.50;100.00;101013.59;4990851;28;20428;-80
2023/08/12 03:10:44;;;;;;;5.85;3.50;;;;;;;16.47;100.00;100998.56;4984877;28;20418;-79
2023/08/12 03:13:18;;;;;;;6.10;3.20;;;;;;;16.42;100.00;100995.13;4991386;28;20970;-79
2023/08/12 03:15:51;;;;;;;7.75;3.60;;;;;;;16.39;100.00;100999.31;4987441;28;20422;-81
2023/08/12 03:18:26;;;;;;;9.60;3.30;;;;;;;16.38;100.00;101005.94;5001187;28;20435;-80
2023/08/12 03:20:54;;;;;;;6.40;3.10;;;;;;;16.32;100.00;100998.91;5005798;28;21208;-79
2023/08/12 03:23:28;;;;;;;6.95;3.42;;;;;;;16.31;100.00;101000.06;4980933;28;20415;-79
2023/08/12 03:25:59;;;;;;;6.13;3.20;;;;;;;16.31;100.00;101008.31;4984355;28;20432;-80
2023/08/12 03:28:32;;;;;;;6.10;3.40;;;;;;;16.30;100.00;101001.19;4998847;28;20424;-79
2023/08/12 03:31:06;;;;;;;5.65;3.20;;;;;;;16.32;100.00;100999.75;5000074;28;20437;-80
2023/08/12 03:33:39;;;;;;;6.07;3.30;;;;;;;16.32;100.00;100987.94;4987245;28;20432;-79
2023/08/12 03:36:14;;;;;;;6.10;3.30;;;;;;;16.33;100.00;100995.84;4983538;28;20482;-79
2023/08/12 03:38:48;;;;;;;6.55;3.58;;;;;;;16.29;100.00;100989.38;4991226;28;20803;-81
2023/08/12 03:41:21;;;;;;;5.78;3.30;;;;;;;16.31;100.00;100980.84;4991268;28;20441;-80
2023/08/12 03:43:58;;;;;;;7.23;3.47;;;;;;;16.30;100.00;100987.44;4983476;28;20430;-80
2023/08/12 03:46:31;;;;;;;8.00;3.42;;;;;;;16.25;100.00;100987.56;4984784;28;20418;-80
2023/08/12 03:49:04;;;;;;;6.93;3.53;;;;;;;16.25;100.00;100995.78;4987417;28;20429;-80
2023/08/12 03:51:38;;;;;;;7.27;3.60;;;;;;;16.21;100.00;100994.78;4995103;28;20424;-80
2023/08/12 03:54:11;;;;;;;6.25;3.40;;;;;;;16.20;100.00;100993.16;4982929;28;20439;-80
2023/08/12 03:56:46;;;;;;;6.35;3.40;;;;;;;16.18;100.00;100984.44;4992038;28;20436;-80
2023/08/12 03:59:20;;;;;;;6.95;3.58;;;;;;;16.20;100.00;100993.16;4989235;28;20421;-87
2023/08/12 04:01:48;;;;;;;7.50;3.53;;;;;;;16.17;100.00;100983.59;4996724;28;20416;-81
2023/08/12 04:04:21;;;;;;;7.17;3.30;;;;;;;16.17;100.00;100989.09;4979778;28;20431;-81
2023/08/12 04:06:54;;;;;;;6.03;3.38;;;;;;;16.22;100.00;100980.75;4978688;28;20434;-82
2023/08/12 04:09:28;;;;;;;6.90;3.70;;;;;;;16.20;100.00;100968.44;4979174;28;20439;-80
2023/08/12 04:12:03;;;;;;;6.75;3.40;;;;;;;16.22;100.00;100979.94;4975302;28;20439;-81
2023/08/12 04:14:36;;;;;;;7.00;3.50;;;;;;;16.23;100.00;100976.09;4978803;28;20522;-81
2023/08/12 04:17:09;;;;;;;5.40;3.10;;;;;;;16.24;100.00;100969.44;4977210;28;20435;-80
2023/08/12 04:19:37;;;;;;;6.00;3.33;;;;;;;16.26;100.00;100962.53;4979536;28;20931;-81
2023/08/12 04:22:10;;;;;;;6.05;3.53;;;;;;;16.28;100.00;100964.97;4990116;28;20764;-80
2023/08/12 04:24:44;;;;;;;7.30;3.47;;;;;;;16.31;100.00;100972.59;4985144;28;20425;-80
2023/08/12 04:27:18;;;;;;;6.55;3.70;;;;;;;16.29;100.00;100978.38;5002388;28;20438;-80
2023/08/12 04:29:52;;;;;;;6.15;3.50;;;;;;;16.33;100.00;100967.59;5013211;28;20442;-81
2023/08/12 04:32:20;;;;;;;6.60;3.50;;;;;;;16.35;100.00;100970.84;4982533;28;20430;-81
2023/08/12 04:34:53;;;;;;;6.60;3.22;;;;;;;16.39;100.00;100971.84;4985105;28;20426;-80
2023/08/12 04:37:24;;;;;;;6.60;3.50;;;;;;;16.43;100.00;100972.84;4982868;28;20518;-81
2023/08/12 04:39:57;;;;;;;10.50;3.75;;;;;;;16.37;100.00;100974.09;4983458;28;20444;-80
2023/08/12 04:42:27;;;;;;;5.78;3.55;;;;;;;16.45;100.00;100975.28;4987311;28;20432;-81
2023/08/12 04:45:01;;;;;;;6.72;3.60;;;;;;;16.40;100.00;100961.66;4981000;28;20441;-81
2023/08/12 04:47:34;;;;;;;6.57;3.40;;;;;;;16.39;100.00;100971.84;4980982;28;20517;-80
2023/08/12 04:50:08;;;;;;;6.85;3.20;;;;;;;16.43;100.00;100966.53;4983007;28;20450;-80
2023/08/12 04:52:41;;;;;;;7.22;3.58;;;;;;;16.45;100.00;100954.09;4982166;28;20432;-79
2023/08/12 04:55:14;;;;;;;6.22;3.80;;;;;;;16.47;100.00;100959.28;4995783;28;20437;-80
2023/08/12 04:57:49;;;;;;;6.43;3.60;;;;;;;16.44;100.00;100970.91;5012237;28;20424;-80
2023/08/12 05:00:23;;;;;;;6.00;3.47;;;;;;;16.42;100.00;100956.66;4981342;28;20430;-80
2023/08/12 05:02:56;;;;;;;6.38;3.58;;;;;;;16.46;100.00;100979.63;4977432;28;20465;-81
2023/08/12 05:05:26;;;;;;;7.13;3.70;;;;;;;16.38;100.00;100986.69;4981071;28;20449;-81
2023/08/12 05:08:00;;;;;;;8.43;3.75;;;;;;;16.46;100.00;100990.63;4994345;28;20438;-80
2023/08/12 05:10:28;;;;;;;8.55;3.95;;;;;;;16.54;100.00;100991.81;4984717;28;20431;-80
2023/08/12 05:13:03;;;;;;;8.80;3.97;;;;;;;16.78;100.00;100988.75;4992745;28;20432;-81
2023/08/12 05:15:36;;;;;;;8.13;4.25;;;;;;;16.86;100.00;100995.41;4981762;28;20418;-80
2023/08/12 05:18:10;;;;;;;6.17;3.80;;;;;;;16.75;100.00;100992.09;4988565;28;20430;-81
2023/08/12 05:20:43;;;;;;;6.60;4.00;;;;;;;16.79;100.00;100996.69;4984240;28;20780;-80
2023/08/12 05:23:11;;;;;;;10.82;3.90;;;;;;;16.77;100.00;100992.63;5009330;28;20465;-82
2023/08/12 05:25:40;;;;;;;9.13;3.60;;;;;;;16.69;100.00;100983.19;4980233;28;20514;-81
2023/08/12 05:28:15;;;;;;;8.60;4.20;;;;;;;16.71;100.00;100969.13;4980618;28;20430;-81
2023/08/12 05:30:49;;;;;;;7.13;3.47;;;;;;;16.72;100.00;100960.56;5001048;28;20415;-80
2023/08/12 05:33:19;;;;;;;7.43;3.90;;;;;;;16.76;100.00;100955.25;4978738;28;21372;-81
2023/08/12 05:35:48;;;;;;;6.60;3.90;;;;;;;16.78;100.00;100955.78;4981692;28;20940;-80
2023/08/12 05:38:21;;;;;;;6.72;3.67;;;;;;;16.96;100.00;100942.94;4981183;28;20453;-80
2023/08/12 05:40:49;;;;;;;7.15;3.67;;;;;;;16.89;100.00;100948.06;5010820;28;20438;-80
2023/08/12 05:43:23;;;;;;;8.23;3.63;;;;;;;16.88;100.00;100963.72;4983404;28;20426;-80
2023/08/12 05:45:57;;;;;;;6.72;3.70;;;;;;;16.91;100.00;100965.88;4978926;28;20461;-82
2023/08/12 05:48:30;;;;;;;7.57;3.87;;;;;;;16.91;100.00;100965.06;4984829;28;20443;-79
2023/08/12 05:50:58;;;;;;;7.25;3.75;;;;;;;16.92;100.00;100961.22;4995949;28;20443;-81
2023/08/12 05:53:32;;;;;;;6.90;3.97;;;;;;;16.81;100.00;100949.63;4981722;28;20443;-80
2023/08/12 05:56:00;;;;;;;8.18;4.07;;;;;;;16.92;100.00;100950.22;4981065;28;20431;-80
2023/08/12 05:58:30;;;;;;;8.02;3.90;;;;;;;16.94;100.00;100948.75;4979588;28;21280;-82
2023/08/12 06:01:03;;;;;;;7.07;3.83;;;;;;;17.04;100.00;100950.44;4981311;28;20432;-83
2023/08/12 06:03:38;;;;;;;9.45;3.90;;;;;;;17.12;100.00;100954.31;4981080;28;20429;-80
2023/08/12 06:06:07;;;;;;;6.70;3.90;;;;;;;17.13;100.00;100958.69;4975060;28;20825;-81
2023/08/12 06:08:40;;;;;;;6.13;3.80;;;;;;;17.08;100.00;100967.09;4979352;28;20424;-80
2023/08/12 06:11:09;;;;;;;6.18;3.90;;;;;;;17.14;100.00;100957.59;4977440;28;20804;-80
2023/08/12 06:13:38;;;;;;;6.65;4.20;;;;;;;17.21;100.00;100966.19;4983850;28;20454;-80
2023/08/12 06:16:06;;;;;;;6.85;3.83;;;;;;;17.25;100.00;100969.91;4976627;28;20434;-80
2023/08/12 06:18:35;;;;;;;8.68;4.22;;;;;;;17.20;100.00;100972.78;4981195;28;20422;-81
2023/08/12 06:21:08;;;;;;;9.13;4.10;;;;;;;17.28;100.00;100962.97;4976862;28;21084;-80
2023/08/12 06:23:41;;;;;;;8.88;4.15;;;;;;;17.28;100.00;100966.53;4982049;28;20428;-80
2023/08/12 06:26:09;;;;;;;7.10;3.97;;;;;;;17.36;100.00;100964.09;4984734;28;20444;-80
2023/08/12 06:28:44;;;;;;;6.65;3.80;;;;;;;17.38;100.00;100964.63;4983598;28;20433;-81
2023/08/12 06:31:17;;;;;;;7.15;3.80;;;;;;;17.38;100.00;100970.91;4978011;28;20478;-81
2023/08/12 06:33:50;;;;;;;6.37;3.83;;;;;;;17.45;100.00;100971.25;5008658;28;20438;-81
2023/08/12 06:36:24;;;;;;;6.57;3.95;;;;;;;17.48;100.00;100967.88;4990103;28;20912;-80
2023/08/12 06:38:57;;;;;;;7.53;3.93;;;;;;;17.51;100.00;100972.75;4981659;28;20459;-81
2023/08/12 06:41:30;;;;;;;8.00;4.05;;;;;;;17.55;100.00;100970.16;4983867;28;20459;-82
2023/08/12 06:44:01;;;;;;;9.20;3.95;;;;;;;17.62;100.00;100958.66;4976818;28;20433;-81
2023/08/12 06:46:30;;;;;;;12.07;4.50;;;;;;;17.59;100.00;100957.38;5008545;28;20925;-80
2023/08/12 06:48:59;;;;;;;8.07;4.25;;;;;;;17.68;100.00;100962.91;4980373;28;20504;-81
2023/08/12 06:51:27;;;;;;;7.60;4.45;;;;;;;17.69;100.00;100961.78;4974029;28;20431;-82
2023/08/12 06:54:00;;;;;;;7.38;4.30;;;;;;;17.72;100.00;100960.31;4978296;28;20428;-80
2023/08/12 06:56:28;;;;;;;7.93;4.00;;;;;;;17.77;100.00;100955.47;4977582;28;20414;-80
2023/08/12 06:58:56;;;;;;;7.22;3.90;;;;;;;17.80;100.00;100952.06;4981680;28;20434;-79
2023/08/12 07:01:26;;;;;;;8.60;4.10;;;;;;;17.87;100.00;100948.03;4982155;28;21079;-80
2023/08/12 07:03:59;;;;;;;7.43;3.95;;;;;;;17.91;100.00;100949.00;4983822;28;20437;-80
2023/08/12 07:06:32;;;;;;;7.53;4.20;;;;;;;17.96;100.00;100943.38;4978577;28;20442;-81
2023/08/12 07:09:00;;;;;;;9.93;4.18;;;;;;;17.97;100.00;100943.03;4978923;28;20528;-80
2023/08/12 07:11:34;;;;;;;7.93;4.13;;;;;;;18.05;100.00;100949.69;4980373;28;20439;-81
2023/08/12 07:14:07;;;;;;;8.25;3.90;;;;;;;18.11;100.00;100953.09;4995019;28;20805;-80
2023/08/12 07:16:41;;;;;;;7.40;4.30;;;;;;;18.03;100.00;100946.44;4983715;28;20428;-80
2023/08/12 07:19:09;;;;;;;8.65;4.32;;;;;;;18.04;100.00;100947.28;5012590;28;20471;-80
2023/08/12 07:21:42;;;;;;;8.13;4.25;;;;;;;18.13;100.00;100945.31;4977742;28;20428;-80
2023/08/12 07:24:16;;;;;;;8.73;4.45;;;;;;;18.16;100.00;100950.16;4983915;28;20453;-80
2023/08/12 07:26:44;;;;;;;8.05;4.22;;;;;;;18.19;100.00;100936.56;4981733;28;20888;-81
2023/08/12 07:29:17;;;;;;;9.37;4.40;;;;;;;18.16;100.00;100936.38;4981719;28;20431;-82
2023/08/12 07:31:54;;;;;;;9.73;4.50;;;;;;;18.21;100.00;100925.22;4975832;28;20430;-80
2023/08/12 07:34:22;;;;;;;8.65;4.35;;;;;;;18.29;100.00;100929.91;5008303;28;20443;-81
2023/08/12 07:36:51;;;;;;;8.27;4.47;;;;;;;18.35;100.00;100936.03;4975687;28;20809;-82
2023/08/12 07:39:19;;;;;;;8.82;4.38;;;;;;;18.48;100.00;100932.31;5006649;28;20430;-79
2023/08/12 07:41:52;;;;;;;10.00;4.40;;;;;;;18.38;100.00;100926.31;5008990;28;20482;-79
2023/08/12 07:44:25;;;;;;;9.23;4.60;;;;;;;18.45;100.00;100923.88;4970725;28;20532;-79
2023/08/12 07:47:00;;;;;;;7.20;4.60;;;;;;;18.41;100.00;100920.97;4972416;28;20445;-82
2023/08/12 07:49:28;;;;;;;7.50;4.68;;;;;;;18.44;100.00;100914.81;4974230;28;20438;-79
2023/08/12 07:52:01;;;;;;;9.00;4.65;;;;;;;18.54;100.00;100910.88;4975116;28;20833;-80
2023/08/12 07:54:34;;;;;;;10.60;5.03;;;;;;;18.77;100.00;100910.66;5006320;28;20514;-79
2023/08/12 07:57:08;;;;;;;9.97;4.50;;;;;;;18.76;100.00;100909.84;5005865;28;20432;-82
2023/08/12 07:59:36;;;;;;;10.02;4.90;;;;;;;18.74;100.00;100911.31;4975094;28;20418;-79
2023/08/12 08:02:11;;;;;;;8.50;4.97;;;;;;;18.75;100.00;100912.94;4989818;28;20426;-79
2023/08/12 08:04:48;;;;;;;11.13;5.00;;;;;;;18.78;100.00;100915.84;4974731;28;20431;-80
2023/08/12 08:07:22;;;;;;;8.10;4.93;;;;;;;18.67;100.00;100923.66;5006213;28;20443;-82
2023/08/12 08:09:55;;;;;;;11.45;5.00;;;;;;;18.68;100.00;100916.19;4975611;28;20430;-79
2023/08/12 08:12:28;;;;;;;9.07;5.22;;;;;;;18.81;100.00;100925.38;4977744;28;21233;-80
2023/08/12 08:14:57;;;;;;;8.13;4.90;;;;;;;18.88;100.00;100919.41;5006346;28;20442;-80
2023/08/12 08:17:31;;;;;;;9.45;5.00;;;;;;;18.97;100.00;100925.69;4976076;28;20439;-79
2023/08/12 08:19:59;;;;;;;11.00;5.78;;;;;;;18.95;100.00;100917.75;5002836;28;21384;-80
2023/08/12 08:22:32;;;;;;;9.07;5.30;;;;;;;19.06;100.00;100918.19;4982424;28;20462;-80
2023/08/12 08:25:08;;;;;;;9.07;4.80;;;;;;;19.03;100.00;100916.91;4974521;28;20432;-80
2023/08/12 08:27:42;;;;;;;8.75;5.10;;;;;;;19.08;100.00;100913.16;5007058;28;21041;-79
2023/08/12 08:30:15;;;;;;;12.93;5.82;;;;;;;19.11;100.00;100914.44;4975776;28;20475;-80
2023/08/12 08:32:46;;;;;;;10.33;5.00;;;;;;;19.10;100.00;100910.88;5006789;28;20907;-80
2023/08/12 08:35:15;;;;;;;17.05;7.85;;;;;;;19.13;100.00;100914.94;4974449;28;20466;-79
2023/08/12 08:37:44;;;;;;;9.85;5.10;;;;;;;19.15;100.00;100915.38;4974117;28;20438;-81
2023/08/12 08:40:17;;;;;;;8.18;5.13;;;;;;;19.20;100.00;100904.16;5003244;28;20422;-80
2023/08/12 08:42:47;;;;;;;10.77;5.22;;;;;;;19.20;100.00;100912.44;4973080;28;20430;-80
2023/08/12 08:45:23;;;;;;;9.27;5.20;;;;;;;19.29;100.00;100907.69;4975789;28;20538;-79
2023/08/12 08:47:58;;;;;;;7.95;4.80;;;;;;;19.35;100.00;100911.06;4971008;28;20435;-80
2023/08/12 08:50:31;;;;;;;9.30;4.75;;;;;;;19.42;100.00;100919.63;4972531;28;20449;-80
2023/08/12 08:53:07;;;;;;;8.25;4.93;;;;;;;19.46;100.00;100928.84;4972218;28;20445;-79
2023/08/12 08:55:35;;;;;;;9.30;4.87;;;;;;;19.41;100.00;100926.28;4971130;28;20431;-81
2023/08/12 08:58:08;;;;;;;9.55;4.80;;;;;;;19.42;100.00;100910.53;4977436;28;20436;-80
2023/08/12 09:00:38;;;;;;;14.35;5.10;;;;;;;19.38;100.00;100910.41;4986338;28;20455;-80
2023/08/12 09:03:15;;;;;;;9.55;5.22;;;;;;;19.51;100.00;100916.78;4988155;28;20431;-79
2023/08/12 09:05:44;;;;;;;9.70;5.00;;;;;;;19.52;100.00;100921.97;4976231;28;20453;-80
2023/08/12 09:08:17;;;;;;;10.48;5.00;;;;;;;19.60;100.00;100923.06;4974974;28;20439;-79
2023/08/12 09:10:51;;;;;;;8.45;5.05;;;;;;;19.69;100.00;100920.25;4978182;28;20435;-80
2023/08/12 09:13:24;;;;;;;6.93;5.03;;;;;;;19.71;100.00;100915.22;4980547;28;20446;-79
2023/08/12 09:15:52;;;;;;;9.82;5.00;;;;;;;19.78;100.00;100907.19;4978056;28;20432;-79
2023/08/12 09:18:27;;;;;;;8.50;5.28;;;;;;;19.75;100.00;100904.28;4981349;28;20437;-79
2023/08/12 09:21:00;;;;;;;11.68;5.22;;;;;;;19.88;100.00;100892.19;4980165;28;20434;-80
2023/08/12 09:23:36;;;;;;;7.97;5.18;;;;;;;19.90;100.00;100898.19;4979215;28;20446;-79
2023/08/12 09:26:15;;;;;;;9.65;5.25;;;;;;;19.81;100.00;100891.94;4982847;28;20504;-79
2023/08/12 09:28:49;;;;;;;8.77;5.68;;;;;;;20.07;100.00;100885.38;4981951;28;20427;-79
2023/08/12 09:31:25;;;;;;;10.03;5.70;;;;;;;20.22;100.00;100899.34;4978501;28;20432;-79
2023/08/12 09:34:00;;;;;;;11.10;5.95;;;;;;;20.18;100.00;100889.31;4979758;28;20422;-79
2023/08/12 09:36:34;;;;;;;11.90;5.90;;;;;;;20.15;100.00;100890.81;4984754;28;20430;-80
2023/08/12 09:39:09;;;;;;;9.85;5.55;;;;;;;20.27;100.00;100887.25;4978399;28;20445;-79
2023/08/12 09:41:38;;;;;;;9.50;5.80;;;;;;;20.29;100.00;100889.72;4980331;28;20416;-79
2023/08/12 09:44:12;;;;;;;8.80;5.70;;;;;;;20.22;100.00;100887.50;4978476;28;20435;-80
2023/08/12 09:46:45;;;;;;;14.93;5.90;;;;;;;20.07;100.00;100891.69;4984840;28;20426;-79
2023/08/12 09:49:19;;;;;;;10.05;5.47;;;;;;;20.12;100.00;100887.91;4979137;28;20485;-79
2023/08/12 09:51:53;;;;;;;7.75;5.45;;;;;;;20.21;100.00;100886.69;4991735;28;20439;-79
2023/08/12 09:54:28;;;;;;;9.60;5.65;;;;;;;20.11;100.00;100887.13;4976537;28;20444;-79
2023/08/12 09:57:03;;;;;;;8.55;5.60;;;;;;;20.21;100.00;100896.94;4978482;28;20459;-78
2023/08/12 09:59:36;;;;;;;10.38;5.43;;;;;;;20.14;100.00;100902.22;5009235;28;20784;-79
2023/08/12 10:02:18;;;;;;;9.50;5.43;;;;;;;20.05;100.00;100891.22;4994049;28;20796;-78
2023/08/12 10:04:51;;;;;;;8.77;5.50;;;;;;;20.19;100.00;100891.75;4979934;28;20420;-79
2023/08/12 10:07:24;;;;;;;11.82;6.15;;;;;;;20.30;100.00;100886.59;5011865;28;20433;-80
2023/08/12 10:09:55;;;;;;;9.68;5.95;;;;;;;20.72;100.00;100882.91;4977571;28;20443;-80
2023/08/12 10:12:28;;;;;;;11.65;5.90;;;;;;;20.90;100.00;100880.72;4984632;28;20868;-80
2023/08/12 10:15:02;;;;;;;9.63;6.18;;;;;;;20.88;100.00;100874.72;4978928;28;20790;-79
2023/08/12 10:17:35;;;;;;;8.82;5.53;;;;;;;20.82;100.00;100871.38;4978931;28;20426;-79
2023/08/12 10:20:14;;;;;;;9.85;5.38;;;;;;;20.81;100.00;100869.78;4978711;28;20429;-79
2023/08/12 10:22:48;;;;;;;11.50;5.72;;;;;;;20.84;100.00;100868.25;4976367;28;20436;-84
2023/08/12 10:25:21;;;;;;;8.38;5.55;;;;;;;20.79;100.00;100862.97;4977391;28;20432;-79
2023/08/12 10:27:50;;;;;;;9.18;5.75;;;;;;;20.77;100.00;100863.34;4953118;28;20426;-80
2023/08/12 10:30:23;;;;;;;9.88;5.65;;;;;;;20.83;100.00;100859.16;4972655;28;20442;-81
2023/08/12 10:32:51;;;;;;;10.23;5.43;;;;;;;21.02;100.00;100852.25;4958465;28;20488;-80
2023/08/12 10:35:41;;;;;;;11.40;5.72;;;;;;;20.85;100.00;100856.88;4961756;28;20442;-79
2023/08/12 10:38:18;;;;;;;34.95;25.45;;;;;;;20.82;100.00;100846.47;4975554;28;20442;-80
2023/08/12 10:40:46;;;;;;;10.55;5.90;;;;;;;20.82;100.00;100845.69;4963501;28;20422;-80
2023/08/12 10:43:19;;;;;;;10.68;5.63;;;;;;;20.79;100.00;100840.84;4964254;28;20441;-79
2023/08/12 10:45:54;;;;;;;10.80;5.90;;;;;;;20.82;100.00;100832.66;4962749;28;20438;-81
2023/08/12 10:48:24;;;;;;;10.10;5.70;;;;;;;20.92;100.00;100828.63;4960011;28;20434;-79
2023/08/12 10:50:55;;;;;;;12.43;5.95;;;;;;;20.90;100.00;100836.47;4951298;28;20438;-80
2023/08/12 10:53:29;;;;;;;8.77;5.60;;;;;;;20.96;100.00;100832.31;4953797;28;20516;-81
2023/08/12 10:56:04;;;;;;;9.73;6.10;;;;;;;20.97;100.00;100827.59;4955212;28;20434;-78
2023/08/12 10:58:47;;;;;;;10.23;6.00;;;;;;;20.88;100.00;100824.94;4956622;28;21380;-80
2023/08/12 11:01:20;;;;;;;9.27;5.97;;;;;;;20.95;100.00;100824.34;4952808;28;20445;-79
2023/08/12 11:03:53;;;;;;;12.02;6.80;;;;;;;20.86;100.00;100827.25;4969480;28;20441;-81
2023/08/12 11:06:29;;;;;;;12.55;6.40;;;;;;;20.92;100.00;100822.28;4954775;28;20453;-80
2023/08/12 11:09:07;;;;;;;12.32;8.02;;;;;;;20.98;100.00;100826.44;4956076;28;20434;-82
2023/08/12 11:11:35;;;;;;;9.73;6.18;;;;;;;21.15;100.00;100820.63;4956863;28;20441;-80
2023/08/12 11:14:14;;;;;;;10.18;6.47;;;;;;;21.30;100.00;100819.13;4950775;28;20438;-82
2023/08/12 11:16:44;;;;;;;9.57;6.68;;;;;;;21.44;100.00;100818.72;4958044;28;20437;-81
2023/08/12 11:19:12;;;;;;;11.93;6.65;;;;;;;21.44;100.00;100815.16;4952796;28;20431;-82
2023/08/12 11:21:43;;;;;;;10.93;6.20;;;;;;;21.53;100.00;100807.53;4952671;28;20435;-81
2023/08/12 11:24:17;;;;;;;10.00;5.90;;;;;;;21.56;100.00;100813.19;4964475;28;20454;-82
2023/08/12 11:26:51;;;;;;;12.52;6.28;;;;;;;21.62;100.00;100821.25;4934594;28;20433;-81
2023/08/12 11:29:25;;;;;;;12.75;6.03;;;;;;;21.61;100.00;100814.09;4953566;28;21063;-81
2023/08/12 11:31:53;;;;;;;9.50;5.70;;;;;;;21.74;100.00;100808.16;4956575;28;20457;-80
2023/08/12 11:34:21;;;;;;;11.35;6.78;;;;;;;21.79;100.00;100818.16;4952417;28;20430;-81
2023/08/12 11:36:57;;;;;;;9.82;6.80;;;;;;;21.76;100.00;100815.31;4952962;28;20439;-80
2023/08/12 11:39:30;;;;;;;11.40;6.32;;;;;;;21.79;100.00;100811.81;4957155;28;20426;-81
2023/08/12 11:42:04;;;;;;;9.18;6.30;;;;;;;21.71;100.00;100808.88;4957055;28;20439;-80